createdAt,value
2022-07-31T00:00:26.570Z,50.93
2022-07-31T00:02:55.019Z,51.10
2022-07-31T00:05:23.372Z,50.70
2022-07-31T00:07:51.653Z,50.33
2022-07-31T00:10:20.114Z,50.33
2022-07-31T00:12:48.347Z,50.20
2022-07-31T00:15:16.582Z,49.67
2022-07-31T00:17:46.294Z,51.27
2022-07-31T00:20:15.498Z,50.17
2022-07-31T00:22:44.018Z,49.97
2022-07-31T00:25:12.731Z,49.57
2022-07-31T00:27:41.138Z,51.57
2022-07-31T00:30:12.411Z,49.93
2022-07-31T00:32:40.708Z,50.27
2022-07-31T00:35:12.219Z,50.73
2022-07-31T00:37:41.455Z,51.43
2022-07-31T00:40:11.337Z,49.67
2022-07-31T00:42:39.489Z,50.53
2022-07-31T00:45:08.554Z,49.63
2022-07-31T00:47:37.439Z,49.77
2022-07-31T00:50:08.346Z,49.87
2022-07-31T00:52:39.023Z,50.33
2022-07-31T00:55:07.705Z,49.90
2022-07-31T00:57:36.017Z,52.00
2022-07-31T01:00:04.452Z,49.23
2022-07-31T01:02:32.731Z,49.30
2022-07-31T01:05:00.956Z,50.73
2022-07-31T01:07:29.155Z,50.10
2022-07-31T01:09:59.185Z,49.17
2022-07-31T01:12:32.703Z,49.73
2022-07-31T01:15:03.819Z,50.70
2022-07-31T01:17:32.922Z,49.77
2022-07-31T01:20:01.385Z,49.93
2022-07-31T01:22:39.482Z,49.67
2022-07-31T01:25:13.123Z,50.17
2022-07-31T01:27:51.942Z,49.80
2022-07-31T01:30:21.901Z,49.10
2022-07-31T01:32:50.848Z,50.17
2022-07-31T01:35:22.386Z,48.60
2022-07-31T01:37:54.067Z,49.63
2022-07-31T01:40:25.202Z,49.40
2022-07-31T01:42:57.093Z,50.50
2022-07-31T01:45:28.086Z,49.37
2022-07-31T01:47:57.661Z,49.63
2022-07-31T01:50:43.489Z,49.83
2022-07-31T01:53:14.670Z,49.20
2022-07-31T01:56:01.913Z,49.50
2022-07-31T01:58:35.057Z,49.33
2022-07-31T02:01:05.545Z,50.03
2022-07-31T02:03:43.388Z,49.70
2022-07-31T02:06:14.845Z,50.33
2022-07-31T02:08:44.077Z,49.90
2022-07-31T02:11:13.989Z,51.03
2022-07-31T02:13:42.454Z,49.67
2022-07-31T02:16:12.655Z,50.23
2022-07-31T02:18:41.394Z,50.30
2022-07-31T02:21:10.331Z,49.80
2022-07-31T02:23:38.818Z,50.20
2022-07-31T02:26:07.587Z,49.73
2022-07-31T02:28:37.958Z,50.80
2022-07-31T02:31:07.137Z,50.50
2022-07-31T02:33:36.911Z,50.40
2022-07-31T02:36:06.089Z,49.83
2022-07-31T02:38:35.799Z,52.03
2022-07-31T02:41:05.613Z,51.33
2022-07-31T02:43:35.269Z,47.23
2022-07-31T02:46:03.580Z,51.80
2022-07-31T02:48:31.980Z,52.43
2022-07-31T02:51:01.545Z,52.13
2022-07-31T02:53:30.299Z,51.40
2022-07-31T02:55:58.645Z,51.70
2022-07-31T02:58:27.216Z,51.23
2022-07-31T03:01:01.983Z,51.17
2022-07-31T03:03:30.383Z,50.33
2022-07-31T03:05:58.809Z,49.63
2022-07-31T03:08:28.602Z,49.67
2022-07-31T03:10:56.895Z,52.07
2022-07-31T03:13:27.345Z,51.13
2022-07-31T03:15:56.203Z,52.37
2022-07-31T03:18:24.587Z,51.30
2022-07-31T03:20:53.002Z,50.73
2022-07-31T03:23:22.264Z,50.83
2022-07-31T03:25:52.126Z,52.30
2022-07-31T03:28:20.685Z,51.10
2022-07-31T03:30:56.238Z,50.70
2022-07-31T03:33:25.172Z,51.03
2022-07-31T03:35:54.204Z,50.97
2022-07-31T03:38:41.724Z,50.87
2022-07-31T03:41:11.986Z,50.17
2022-07-31T03:43:43.745Z,52.50
2022-07-31T03:46:15.857Z,51.17
2022-07-31T03:48:44.085Z,51.33
2022-07-31T03:51:13.202Z,51.30
2022-07-31T03:53:41.473Z,51.37
2022-07-31T03:56:09.897Z,49.97
2022-07-31T03:58:39.663Z,51.17
2022-07-31T04:01:10.544Z,51.57
2022-07-31T04:03:40.556Z,52.13
2022-07-31T04:06:09.033Z,50.97
2022-07-31T04:08:37.261Z,51.10
2022-07-31T04:11:05.466Z,49.37
2022-07-31T04:13:33.696Z,51.30
2022-07-31T04:16:03.311Z,52.13
2022-07-31T04:18:31.541Z,52.00
2022-07-31T04:20:59.817Z,52.70
2022-07-31T04:23:32.488Z,52.07
2022-07-31T04:26:00.988Z,51.53
2022-07-31T04:28:29.194Z,50.97
2022-07-31T04:30:57.413Z,54.93
2022-07-31T04:33:27.201Z,52.30
2022-07-31T04:35:55.469Z,51.33
2022-07-31T04:38:23.670Z,52.23
2022-07-31T04:40:52.075Z,53.63
2022-07-31T04:43:20.320Z,51.77
2022-07-31T04:45:48.501Z,54.73
2022-07-31T04:48:16.727Z,59.93
2022-07-31T04:50:46.269Z,54.43
2022-07-31T04:53:14.479Z,51.73
2022-07-31T04:56:03.458Z,53.83
2022-07-31T04:58:31.763Z,52.17
2022-07-31T05:00:59.995Z,55.47
2022-07-31T05:03:28.222Z,56.63
2022-07-31T05:05:57.815Z,53.67
2022-07-31T05:08:26.046Z,57.03
2022-07-31T05:11:11.716Z,58.73
2022-07-31T05:13:39.914Z,57.03
2022-07-31T05:16:12.583Z,61.10
2022-07-31T05:18:40.808Z,53.83
2022-07-31T05:21:10.390Z,56.60
2022-07-31T05:23:38.635Z,57.67
2022-07-31T05:26:06.935Z,59.03
2022-07-31T05:28:35.373Z,57.07
2022-07-31T05:31:03.604Z,52.97
2022-07-31T05:33:31.836Z,57.27
2022-07-31T05:36:00.495Z,58.80
2022-07-31T05:38:30.167Z,54.53
2022-07-31T05:40:58.377Z,56.87
2022-07-31T05:43:26.635Z,59.90
2022-07-31T05:45:54.825Z,58.20
2022-07-31T05:48:23.205Z,54.87
2022-07-31T05:50:51.888Z,57.57
2022-07-31T05:53:20.887Z,55.60
2022-07-31T05:55:53.738Z,54.10
2022-07-31T05:58:22.012Z,58.13
2022-07-31T06:00:51.214Z,58.13
2022-07-31T06:03:24.239Z,60.57
2022-07-31T06:05:52.822Z,54.27
2022-07-31T06:08:21.216Z,58.07
2022-07-31T06:10:50.843Z,57.50
2022-07-31T06:13:19.420Z,61.30
2022-07-31T06:15:49.569Z,58.43
2022-07-31T06:18:17.859Z,58.60
2022-07-31T06:20:46.226Z,55.67
2022-07-31T06:23:19.936Z,54.87
2022-07-31T06:25:54.162Z,58.73
2022-07-31T06:28:29.672Z,54.37
2022-07-31T06:31:06.071Z,59.23
2022-07-31T06:33:37.798Z,58.40
2022-07-31T06:36:06.553Z,59.50
2022-07-31T06:38:34.721Z,60.83
2022-07-31T06:41:04.286Z,56.13
2022-07-31T06:43:33.391Z,54.40
2022-07-31T06:46:01.649Z,55.27
2022-07-31T06:48:30.026Z,57.67
2022-07-31T06:53:46.520Z,56.17
2022-07-31T06:56:16.142Z,55.67
2022-07-31T06:58:44.376Z,55.77
2022-07-31T07:01:12.653Z,57.33
2022-07-31T07:03:41.350Z,57.97
2022-07-31T07:06:09.743Z,56.80
2022-07-31T07:08:38.040Z,55.80
2022-07-31T07:11:10.349Z,71.10
2022-07-31T07:13:46.367Z,57.87
2022-07-31T07:16:14.930Z,54.67
2022-07-31T07:18:44.073Z,55.63
2022-07-31T07:21:12.385Z,56.20
2022-07-31T07:23:40.706Z,56.30
2022-07-31T07:26:09.406Z,55.23
2022-07-31T07:28:38.040Z,54.73
2022-07-31T07:31:07.918Z,59.87
2022-07-31T07:33:40.227Z,55.40
2022-07-31T07:36:22.834Z,55.20
2022-07-31T07:38:53.370Z,56.37
2022-07-31T07:41:21.816Z,55.90
2022-07-31T07:43:52.381Z,57.13
2022-07-31T07:46:22.741Z,58.87
2022-07-31T07:48:51.910Z,60.17
2022-07-31T07:51:20.524Z,56.37
2022-07-31T07:53:48.789Z,58.93
2022-07-31T07:56:17.063Z,58.67
2022-07-31T07:58:45.246Z,57.17
2022-07-31T08:01:13.577Z,58.30
2022-07-31T08:03:49.467Z,59.67
2022-07-31T08:06:20.033Z,58.80
2022-07-31T08:08:48.266Z,61.37
2022-07-31T08:11:17.027Z,59.20
2022-07-31T08:13:50.192Z,57.23
2022-07-31T08:16:19.214Z,57.13
2022-07-31T08:18:49.008Z,59.77
2022-07-31T08:21:17.256Z,58.50
2022-07-31T08:23:45.507Z,59.87
2022-07-31T08:26:13.956Z,59.90
2022-07-31T08:28:50.571Z,57.77
2022-07-31T08:31:19.441Z,59.17
2022-07-31T08:33:49.041Z,56.07
2022-07-31T08:36:17.334Z,57.43
2022-07-31T08:38:45.588Z,59.40
2022-07-31T08:41:15.560Z,56.87
2022-07-31T08:44:01.801Z,58.43
2022-07-31T08:46:33.081Z,57.20
2022-07-31T08:49:03.800Z,57.87
2022-07-31T08:51:32.855Z,58.13
2022-07-31T08:54:20.826Z,57.57
2022-07-31T08:56:52.302Z,57.50
2022-07-31T08:59:20.839Z,60.57
2022-07-31T09:01:49.280Z,57.57
2022-07-31T09:04:19.361Z,57.93
2022-07-31T09:06:47.712Z,58.67
2022-07-31T09:09:17.804Z,62.27
2022-07-31T09:11:49.203Z,57.80
2022-07-31T09:14:25.791Z,58.37
2022-07-31T09:16:56.596Z,57.70
2022-07-31T09:19:53.543Z,57.53
2022-07-31T09:22:22.394Z,57.10
2022-07-31T09:24:50.722Z,57.80
2022-07-31T09:27:19.525Z,57.33
2022-07-31T09:29:49.680Z,57.83
2022-07-31T09:32:18.837Z,59.63
2022-07-31T09:34:49.395Z,57.73
2022-07-31T09:37:18.788Z,57.47
2022-07-31T09:39:52.097Z,56.70
2022-07-31T09:42:21.488Z,60.20
2022-07-31T09:44:50.494Z,57.70
2022-07-31T09:47:22.991Z,57.77
2022-07-31T09:49:56.535Z,58.03
2022-07-31T09:52:24.769Z,62.03
2022-07-31T09:55:02.004Z,56.97
2022-07-31T09:57:30.709Z,59.90
2022-07-31T09:59:58.929Z,58.37
2022-07-31T10:02:27.529Z,59.77
2022-07-31T10:04:59.633Z,59.80
2022-07-31T10:07:32.052Z,58.67
2022-07-31T10:10:01.997Z,58.07
2022-07-31T10:12:30.955Z,57.53
2022-07-31T10:15:03.905Z,58.30
2022-07-31T10:17:36.166Z,62.33
2022-07-31T10:20:07.430Z,58.63
2022-07-31T10:22:36.937Z,55.13
2022-07-31T10:25:05.337Z,55.77
2022-07-31T10:27:34.026Z,55.53
2022-07-31T10:30:08.804Z,60.73
2022-07-31T10:32:37.315Z,55.47
2022-07-31T10:35:08.084Z,55.73
2022-07-31T10:37:38.949Z,55.23
2022-07-31T10:40:10.606Z,56.37
2022-07-31T10:42:43.574Z,54.63
2022-07-31T10:45:13.782Z,55.13
2022-07-31T10:47:48.896Z,53.40
2022-07-31T10:50:23.732Z,53.67
2022-07-31T10:52:53.449Z,54.17
2022-07-31T10:55:27.033Z,53.77
2022-07-31T10:57:57.481Z,56.27
2022-07-31T11:00:29.647Z,54.47
2022-07-31T11:02:58.546Z,55.43
2022-07-31T11:05:28.309Z,56.00
2022-07-31T11:08:02.193Z,57.10
2022-07-31T11:10:30.672Z,55.40
2022-07-31T11:13:04.285Z,56.63
2022-07-31T11:15:33.638Z,55.37
2022-07-31T11:18:20.215Z,55.50
2022-07-31T11:21:13.617Z,59.30
2022-07-31T11:24:02.333Z,60.43
2022-07-31T11:26:32.403Z,53.17
2022-07-31T11:29:58.943Z,64.10
2022-07-31T11:32:02.845Z,66.93
2022-07-31T11:34:34.075Z,56.63
2022-07-31T11:37:06.560Z,55.67
2022-07-31T11:39:37.114Z,55.97
2022-07-31T11:42:07.549Z,58.10
2022-07-31T11:44:36.274Z,57.97
2022-07-31T11:48:09.637Z,59.00
2022-07-31T11:50:01.862Z,55.97
2022-07-31T11:52:37.229Z,61.83
2022-07-31T11:55:09.055Z,54.73
2022-07-31T11:57:51.693Z,55.03
2022-07-31T12:00:29.279Z,55.03
2022-07-31T12:02:58.858Z,56.37
2022-07-31T12:05:38.000Z,55.80
2022-07-31T12:08:09.116Z,57.00
2022-07-31T12:10:37.474Z,56.03
2022-07-31T12:13:06.011Z,58.70
2022-07-31T12:15:34.266Z,58.53
2022-07-31T12:18:06.286Z,57.10
2022-07-31T12:20:36.310Z,56.53
2022-07-31T12:23:06.179Z,60.00
2022-07-31T12:25:46.490Z,56.73
2022-07-31T12:28:15.468Z,58.27
2022-07-31T12:30:44.039Z,60.27
2022-07-31T12:33:13.219Z,59.33
2022-07-31T12:35:56.131Z,60.07
2022-07-31T12:38:47.555Z,57.93
2022-07-31T12:41:15.468Z,57.03
2022-07-31T12:43:50.915Z,57.03
2022-07-31T12:46:20.483Z,56.83
2022-07-31T12:48:48.863Z,57.77
2022-07-31T12:51:20.498Z,58.30
2022-07-31T12:54:09.183Z,57.10
2022-07-31T12:56:39.367Z,57.13
2022-07-31T12:59:07.954Z,57.30
2022-07-31T13:01:36.796Z,61.87
2022-07-31T13:04:07.948Z,63.93
2022-07-31T13:06:48.726Z,60.77
2022-07-31T13:09:17.201Z,58.87
2022-07-31T13:11:48.375Z,61.30
2022-07-31T13:14:17.303Z,54.17
2022-07-31T13:16:45.574Z,57.20
2022-07-31T13:19:14.028Z,58.53
2022-07-31T13:21:48.940Z,59.07
2022-07-31T13:24:18.290Z,61.30
2022-07-31T13:26:47.876Z,61.30
2022-07-31T13:29:16.431Z,62.83
2022-07-31T13:31:44.672Z,59.47
2022-07-31T13:34:13.806Z,56.30
2022-07-31T13:36:42.041Z,60.03
2022-07-31T13:39:10.817Z,60.50
2022-07-31T13:41:39.818Z,57.73
2022-07-31T13:44:10.009Z,57.27
2022-07-31T13:46:38.727Z,59.53
2022-07-31T13:49:10.234Z,61.80
2022-07-31T13:51:38.948Z,58.77
2022-07-31T13:54:07.319Z,59.77
2022-07-31T13:56:42.635Z,60.07
2022-07-31T13:59:14.206Z,56.97
2022-07-31T14:02:04.280Z,59.20
2022-07-31T14:04:32.868Z,58.23
2022-07-31T14:07:07.260Z,55.17
2022-07-31T14:09:36.049Z,58.17
2022-07-31T14:12:05.783Z,56.37
2022-07-31T14:14:35.736Z,57.73
2022-07-31T14:17:03.943Z,57.33
2022-07-31T14:19:42.068Z,57.53
2022-07-31T14:22:12.951Z,58.07
2022-07-31T14:24:41.343Z,55.53
2022-07-31T14:27:10.344Z,56.43
2022-07-31T14:29:39.970Z,55.77
2022-07-31T14:32:08.722Z,58.40
2022-07-31T14:34:37.242Z,58.80
2022-07-31T14:37:05.654Z,58.33
2022-07-31T14:39:34.103Z,60.70
2022-07-31T14:42:02.693Z,58.83
2022-07-31T14:44:31.349Z,57.90
2022-07-31T14:47:00.997Z,58.50
2022-07-31T14:50:09.968Z,58.50
2022-07-31T14:52:17.898Z,56.07
2022-07-31T14:54:46.104Z,56.53
2022-07-31T14:57:19.925Z,56.23
2022-07-31T14:59:50.475Z,55.10
2022-07-31T15:02:22.721Z,54.93
2022-07-31T15:04:51.587Z,55.60
2022-07-31T15:07:38.455Z,58.50
2022-07-31T15:10:09.030Z,54.53
2022-07-31T15:12:37.216Z,58.63
2022-07-31T15:15:05.843Z,56.20
2022-07-31T15:17:35.565Z,60.47
2022-07-31T15:20:03.809Z,59.90
2022-07-31T15:22:32.033Z,57.50
2022-07-31T15:25:00.310Z,62.17
2022-07-31T15:27:28.530Z,57.33
2022-07-31T15:30:04.209Z,60.13
2022-07-31T15:32:37.506Z,57.20
2022-07-31T15:35:06.666Z,59.73
2022-07-31T15:37:35.720Z,55.90
2022-07-31T15:40:11.398Z,57.30
2022-07-31T15:42:41.790Z,54.10
2022-07-31T15:45:10.807Z,60.57
2022-07-31T15:47:40.868Z,59.73
2022-07-31T15:50:11.041Z,59.37
2022-07-31T15:52:39.345Z,57.97
2022-07-31T15:55:08.254Z,59.57
2022-07-31T15:57:36.981Z,58.17
2022-07-31T16:00:06.335Z,58.33
2022-07-31T16:02:34.566Z,59.07
2022-07-31T16:05:12.078Z,58.47
2022-07-31T16:08:31.807Z,56.10
2022-07-31T16:10:39.069Z,56.40
2022-07-31T16:13:07.302Z,55.63
2022-07-31T16:15:35.710Z,54.50
2022-07-31T16:18:04.764Z,55.97
2022-07-31T16:20:34.443Z,55.53
2022-07-31T16:23:03.123Z,58.20
2022-07-31T16:25:34.740Z,55.93
2022-07-31T16:28:03.578Z,55.73
2022-07-31T16:30:31.913Z,56.00
2022-07-31T16:33:00.238Z,57.03
2022-07-31T16:35:28.450Z,54.63
2022-07-31T16:37:58.040Z,54.80
2022-07-31T16:40:29.808Z,56.80
2022-07-31T16:43:00.829Z,60.30
2022-07-31T16:45:29.695Z,57.97
2022-07-31T16:47:58.070Z,58.50
2022-07-31T16:50:26.461Z,59.73
2022-07-31T16:52:55.384Z,60.97
2022-07-31T16:55:59.827Z,54.70
2022-07-31T16:58:14.159Z,60.97
2022-07-31T17:00:42.477Z,58.20
2022-07-31T17:03:59.130Z,57.33
2022-07-31T17:05:59.158Z,55.80
2022-07-31T17:08:28.889Z,56.63
2022-07-31T17:10:58.688Z,56.33
2022-07-31T17:13:27.122Z,56.93
2022-07-31T17:15:55.450Z,57.60
2022-07-31T17:18:25.330Z,58.60
2022-07-31T17:20:55.981Z,58.77
2022-07-31T17:23:43.306Z,61.40
2022-07-31T17:26:21.654Z,56.57
2022-07-31T17:28:51.249Z,55.53
2022-07-31T17:31:19.656Z,61.00
2022-07-31T17:33:55.836Z,53.77
2022-07-31T17:36:29.216Z,54.47
2022-07-31T17:38:57.904Z,56.93
2022-07-31T17:41:27.567Z,53.50
2022-07-31T17:43:56.146Z,59.47
2022-07-31T17:46:28.218Z,55.13
2022-07-31T17:49:03.693Z,55.27
2022-07-31T17:51:32.111Z,54.10
2022-07-31T17:54:00.730Z,54.47
2022-07-31T17:56:31.271Z,56.17
2022-07-31T17:59:04.661Z,53.57
2022-07-31T18:01:33.941Z,54.37
2022-07-31T18:04:02.634Z,54.27
2022-07-31T18:06:30.927Z,54.13
2022-07-31T18:08:59.503Z,56.03
2022-07-31T18:11:30.133Z,54.23
2022-07-31T18:14:01.066Z,56.03
2022-07-31T18:16:32.036Z,55.77
2022-07-31T18:19:00.465Z,55.60
2022-07-31T18:21:28.805Z,55.50
2022-07-31T18:23:59.012Z,56.10
2022-07-31T18:26:31.852Z,53.57
2022-07-31T18:29:00.297Z,54.67
2022-07-31T18:31:34.146Z,54.23
2022-07-31T18:34:04.195Z,54.80
2022-07-31T18:36:32.782Z,56.23
2022-07-31T18:39:01.443Z,57.60
2022-07-31T18:41:29.818Z,53.60
2022-07-31T18:43:59.933Z,53.00
2022-07-31T18:46:28.470Z,52.77
2022-07-31T18:48:57.289Z,52.33
2022-07-31T18:51:25.930Z,51.70
2022-07-31T18:53:54.899Z,53.43
2022-07-31T18:56:23.688Z,58.80
2022-07-31T18:58:52.128Z,57.80
2022-07-31T19:01:21.792Z,53.57
2022-07-31T19:03:50.121Z,53.23
2022-07-31T19:06:18.322Z,51.77
2022-07-31T19:08:49.315Z,55.53
2022-07-31T19:11:17.534Z,51.50
2022-07-31T19:13:45.782Z,58.33
2022-07-31T19:16:14.461Z,52.23
2022-07-31T19:18:45.509Z,59.70
2022-07-31T19:21:23.940Z,51.90
2022-07-31T19:24:07.100Z,52.00
2022-07-31T19:26:35.444Z,51.60
2022-07-31T19:29:04.025Z,52.80
2022-07-31T19:31:32.260Z,56.90
2022-07-31T19:34:01.878Z,50.43
2022-07-31T19:36:30.267Z,51.53
2022-07-31T19:38:58.538Z,53.13
2022-07-31T19:41:26.893Z,51.60
2022-07-31T19:43:55.293Z,50.53
2022-07-31T19:46:23.595Z,50.83
2022-07-31T19:48:54.417Z,52.67
2022-07-31T19:51:26.940Z,50.50
2022-07-31T19:53:56.542Z,50.57
2022-07-31T19:56:24.938Z,50.60
2022-07-31T20:01:59.938Z,55.53
2022-07-31T20:04:30.476Z,51.03
2022-07-31T20:07:20.492Z,52.27
2022-07-31T20:09:49.818Z,49.57
2022-07-31T20:12:18.909Z,51.73
2022-07-31T20:14:51.634Z,51.03
2022-07-31T20:17:20.321Z,51.57
2022-07-31T20:20:14.976Z,59.93
2022-07-31T20:22:40.229Z,51.03
2022-07-31T20:25:19.492Z,54.37
2022-07-31T20:27:48.936Z,52.20
2022-07-31T20:30:21.674Z,57.03
2022-07-31T20:32:49.954Z,53.33
2022-07-31T20:35:33.093Z,54.80
2022-07-31T20:38:13.991Z,54.00
2022-07-31T20:40:52.755Z,62.23
2022-07-31T20:43:22.395Z,62.10
2022-07-31T20:45:50.760Z,51.43
2022-07-31T20:48:19.012Z,52.23
2022-07-31T20:50:48.317Z,54.60
2022-07-31T20:53:19.220Z,52.40
2022-07-31T20:55:49.803Z,51.03
2022-07-31T20:58:18.522Z,51.80
2022-07-31T21:00:47.524Z,60.27
2022-07-31T21:03:16.068Z,51.73
2022-07-31T21:05:44.306Z,53.10
2022-07-31T21:08:13.092Z,56.17
2022-07-31T21:10:43.171Z,53.17
2022-07-31T21:13:11.520Z,52.43
2022-07-31T21:15:42.143Z,51.37
2022-07-31T21:18:12.683Z,53.53
2022-07-31T21:20:52.142Z,54.17
2022-07-31T21:23:21.570Z,56.10
2022-07-31T21:25:51.627Z,52.27
2022-07-31T21:28:20.410Z,52.70
2022-07-31T21:30:48.935Z,52.67
2022-07-31T21:33:18.121Z,57.80
2022-07-31T21:35:47.302Z,52.37
2022-07-31T21:38:16.252Z,52.07
2022-07-31T21:40:44.962Z,54.10
2022-07-31T21:43:18.636Z,52.93
2022-07-31T21:45:57.245Z,52.27
2022-07-31T21:48:29.289Z,51.87
2022-07-31T21:50:57.828Z,54.37
2022-07-31T21:53:26.613Z,53.13
2022-07-31T21:55:55.020Z,55.80
2022-07-31T21:58:24.790Z,52.83
2022-07-31T22:00:53.250Z,52.83
2022-07-31T22:03:21.599Z,51.90
2022-07-31T22:06:07.680Z,55.67
2022-07-31T22:08:36.162Z,58.73
2022-07-31T22:11:04.558Z,55.50
2022-07-31T22:13:34.205Z,53.73
2022-07-31T22:16:02.467Z,55.07
2022-07-31T22:18:31.114Z,55.13
2022-07-31T22:20:59.989Z,55.10
2022-07-31T22:23:28.658Z,53.87
2022-07-31T22:25:57.179Z,54.10
2022-07-31T22:28:26.428Z,54.90
2022-07-31T22:30:57.114Z,54.50
2022-07-31T22:33:25.635Z,55.13
2022-07-31T22:36:00.238Z,56.40
2022-07-31T22:38:29.625Z,56.03
2022-07-31T22:40:57.988Z,56.90
2022-07-31T22:44:12.995Z,54.53
2022-07-31T22:46:16.407Z,53.37
2022-07-31T22:48:46.310Z,53.50
2022-07-31T22:51:15.552Z,54.13
2022-07-31T22:53:44.490Z,55.93
2022-07-31T22:56:16.929Z,54.83
2022-07-31T22:58:45.147Z,54.10
2022-07-31T23:01:13.838Z,54.90
2022-07-31T23:03:43.442Z,55.10
2022-07-31T23:06:31.639Z,54.30
2022-07-31T23:08:59.891Z,53.33
2022-07-31T23:11:28.214Z,55.27
2022-07-31T23:13:56.515Z,52.53
2022-07-31T23:16:24.883Z,53.27
2022-07-31T23:18:54.682Z,56.07
2022-07-31T23:21:23.058Z,53.87
2022-07-31T23:23:51.722Z,53.57
2022-07-31T23:26:20.150Z,50.47
2022-07-31T23:28:48.499Z,51.43
2022-07-31T23:31:16.749Z,54.13
2022-07-31T23:33:45.425Z,52.50
2022-07-31T23:36:15.396Z,54.07
2022-07-31T23:38:43.703Z,54.23
2022-07-31T23:41:12.031Z,54.80
2022-07-31T23:43:39.556Z,54.87
2022-07-31T23:46:08.038Z,54.30
2022-07-31T23:48:36.501Z,49.30
2022-07-31T23:51:07.971Z,49.93
2022-07-31T23:53:37.963Z,50.37
2022-07-31T23:56:06.717Z,49.97
2022-07-31T23:58:47.601Z,54.17
